Time;durP1;ratioP1;P1;durP2;ratioP2;P2;SDS_P1;SDS_P2;PMS_P1;PMS_P2;Temp;Humidity;BMP_temperature;BMP_pressure;BME280_temperature;BME280_humidity;BME280_pressure;Samples;Min_cycle;Max_cycle;Signal;HPM_P1;HPM_P2
2023/01/13 00:02:04;;;;;;;2.10;1.23;;;;;;;2.11;85.34;101465.72;4990962;28;20068;-88
2023/01/13 00:04:41;;;;;;;1.80;1.00;;;;;;;2.25;84.67;101459.63;4981293;28;20059;-88
2023/01/13 00:07:25;;;;;;;1.60;1.00;;;;;;;2.22;84.65;101456.28;5004550;28;20050;-87
2023/01/13 00:09:56;;;;;;;;;;;;;;;2.08;85.17;101475.63;5002237;28;20069;-87
2023/01/13 00:12:24;;;;;;;1.50;0.90;;;;;;;2.04;85.39;101468.81;5014978;28;19929;-88
2023/01/13 00:14:57;;;;;;;2.15;1.15;;;;;;;2.06;85.27;101472.22;4997816;28;20038;-88
2023/01/13 00:17:31;;;;;;;1.98;1.15;;;;;;;2.08;85.60;101479.16;5017677;28;20061;-88
2023/01/13 00:20:00;;;;;;;3.53;1.20;;;;;;;1.98;85.45;101437.31;5003471;28;20115;-88
2023/01/13 00:22:28;;;;;;;2.15;1.30;;;;;;;2.04;84.77;101455.56;5006363;28;20104;-88
2023/01/13 00:25:14;;;;;;;1.70;1.10;;;;;;;1.98;85.73;101461.19;4995995;28;20072;-87
2023/01/13 00:27:40;;;;;;;1.77;1.05;;;;;;;2.00;85.54;101467.25;5003189;28;20042;-86
2023/01/13 00:30:12;;;;;;;2.33;1.00;;;;;;;2.14;84.83;101464.69;5005365;28;20045;-86
2023/01/13 00:32:45;;;;;;;1.75;1.10;;;;;;;2.08;84.74;101451.75;4998889;28;20048;-88
2023/01/13 00:35:34;;;;;;;1.80;1.00;;;;;;;2.02;84.89;101428.25;5002527;28;20442;-87
2023/01/13 00:38:01;;;;;;;1.90;1.10;;;;;;;2.04;84.97;101436.97;4993968;28;20066;-87
2023/01/13 00:40:30;;;;;;;1.85;1.00;;;;;;;1.98;84.38;101418.75;5039461;28;20080;-88
2023/01/13 00:45:43;;;;;;;2.00;1.20;;;;;;;1.92;84.99;101422.63;4987618;28;20124;-87
2023/01/13 00:48:10;;;;;;;2.20;1.30;;;;;;;1.93;85.33;101423.47;4998147;28;20044;-87
2023/01/13 00:50:36;;;;;;;2.53;1.08;;;;;;;2.00;84.84;101415.06;5002806;28;20049;-87
2023/01/13 00:53:06;;;;;;;2.15;1.17;;;;;;;2.20;84.00;101432.50;4983136;28;20034;-85
2023/01/13 00:55:35;;;;;;;2.47;1.20;;;;;;;2.21;83.95;101433.38;4995094;28;20159;-87
2023/01/13 00:58:05;;;;;;;2.22;0.98;;;;;;;2.02;83.72;101391.97;5021787;28;20046;-85
2023/01/13 01:00:33;;;;;;;2.00;1.20;;;;;;;2.01;83.95;101416.75;4996903;28;20113;-88
2023/01/13 01:03:01;;;;;;;1.90;1.10;;;;;;;2.18;84.04;101426.44;4988720;28;20050;-86
2023/01/13 01:05:28;;;;;;;1.95;1.30;;;;;;;2.17;84.08;101434.47;5015381;28;20125;-88
2023/01/13 01:07:54;;;;;;;2.22;1.30;;;;;;;1.99;83.51;101399.22;4978555;28;20077;-85
2023/01/13 01:10:23;;;;;;;2.35;1.27;;;;;;;2.09;83.91;101427.81;4993803;28;20041;-88
2023/01/13 01:12:54;;;;;;;2.00;1.20;;;;;;;2.17;84.09;101434.47;5006423;28;20493;-87
2023/01/13 01:15:24;;;;;;;3.00;1.50;;;;;;;1.93;84.25;101392.50;4992176;28;20050;-89
2023/01/13 01:17:51;;;;;;;2.65;1.33;;;;;;;1.96;85.01;101418.81;4997105;28;20041;-87
2023/01/13 01:20:17;;;;;;;2.17;1.25;;;;;;;2.15;84.67;101447.81;4985904;28;20038;-87
2023/01/13 01:22:44;;;;;;;2.47;1.48;;;;;;;2.06;84.88;101435.94;4996143;28;20034;-87
2023/01/13 01:25:17;;;;;;;2.05;1.25;;;;;;;2.09;83.84;101414.53;5009237;28;20034;-87
2023/01/13 01:27:47;;;;;;;2.60;1.40;;;;;;;2.10;84.37;101432.16;5008195;28;20061;-86
2023/01/13 01:30:16;;;;;;;2.95;1.48;;;;;;;2.06;84.61;101425.34;4963934;28;20050;-88
2023/01/13 01:33:15;;;;;;;3.05;1.60;;;;;;;1.88;85.29;101419.28;5006346;28;20129;-88
2023/01/13 01:35:43;;;;;;;2.55;1.65;;;;;;;1.93;84.80;101407.56;4983836;28;20128;-86
2023/01/13 01:38:12;;;;;;;2.35;1.58;;;;;;;1.95;84.91;101429.53;4980986;28;20053;-86
2023/01/13 01:40:39;;;;;;;3.78;1.65;;;;;;;2.21;84.80;101444.81;5001186;28;20042;-87
2023/01/13 01:46:01;;;;;;;3.50;1.70;;;;;;;2.21;84.79;101443.97;5006723;28;20057;-84
2023/01/13 01:48:27;;;;;;;2.78;1.70;;;;;;;2.29;84.46;101426.69;4972717;28;20097;-86
2023/01/13 01:50:53;;;;;;;;;;;;;;;2.13;84.68;101432.94;4974902;28;20465;-86
2023/01/13 01:53:18;;;;;;;;;;;;;;;2.10;84.92;101432.16;5001769;28;19917;-85
2023/01/13 01:55:46;;;;;;;2.90;1.70;;;;;;;2.03;85.09;101422.84;4989173;28;19960;-84
2023/01/13 01:58:20;;;;;;;2.75;1.70;;;;;;;1.93;85.35;101411.06;4992938;28;20054;-87
2023/01/13 02:00:49;;;;;;;2.80;1.75;;;;;;;1.96;85.01;101402.91;5012445;28;20422;-86
2023/01/13 02:03:15;;;;;;;3.05;1.90;;;;;;;2.09;85.15;101424.31;4983881;28;20051;-86
2023/01/13 02:05:41;;;;;;;2.60;1.60;;;;;;;2.17;84.16;101405.28;4971911;28;20046;-86
2023/01/13 02:08:09;;;;;;;3.03;1.77;;;;;;;2.12;84.27;101410.84;4986792;28;20123;-87
2023/01/13 02:10:55;;;;;;;3.05;1.67;;;;;;;2.08;84.78;101430.53;5000109;28;20048;-88
2023/01/13 02:13:20;;;;;;;3.53;1.67;;;;;;;1.94;84.74;101407.44;4975218;28;20057;-87
2023/01/13 02:16:14;;;;;;;3.10;1.70;;;;;;;2.20;84.65;101427.22;4981668;28;20059;-87
2023/01/13 02:18:58;;;;;;;2.90;1.70;;;;;;;2.22;84.21;101435.06;4979391;28;20186;-88
2023/01/13 02:21:48;;;;;;;3.22;1.83;;;;;;;2.17;84.53;101448.59;4986287;28;20104;-86
2023/01/13 02:24:55;;;;;;;3.38;1.60;;;;;;;2.25;84.34;101435.75;5000980;28;20118;-87
2023/01/13 02:27:44;;;;;;;3.10;1.80;;;;;;;2.11;84.36;101401.22;5001501;28;20038;-87
2023/01/13 02:33:46;;;;;;;3.38;1.90;;;;;;;2.26;84.74;101437.44;5005297;28;20060;-89
2023/01/13 02:36:40;;;;;;;3.30;1.98;;;;;;;2.41;83.95;101435.72;4996416;28;20054;-87
2023/01/13 02:39:25;;;;;;;3.08;1.77;;;;;;;2.37;84.47;101443.94;4986127;28;20098;-88
2023/01/13 02:45:12;;;;;;;3.05;1.80;;;;;;;2.19;84.28;101412.22;5003191;28;20111;-86
2023/01/13 02:47:39;;;;;;;3.28;1.90;;;;;;;2.29;84.16;101439.06;4975527;28;20248;-87
2023/01/13 02:50:12;;;;;;;3.55;1.80;;;;;;;2.19;83.64;101401.59;4980942;28;20136;-87
2023/01/13 02:52:54;;;;;;;2.80;1.73;;;;;;;2.36;83.52;101415.69;4992768;28;20442;-86
2023/01/13 02:55:35;;;;;;;3.55;1.65;;;;;;;2.17;83.54;101411.44;5000855;28;20065;-87
2023/01/13 02:58:01;;;;;;;2.63;1.65;;;;;;;2.23;83.58;101397.84;4983036;28;20034;-86
2023/01/13 03:00:29;;;;;;;2.65;1.70;;;;;;;2.15;83.82;101405.38;5003633;28;20098;-89
2023/01/13 03:02:59;;;;;;;2.60;1.70;;;;;;;2.17;83.59;101395.53;5013612;28;20030;-89
2023/01/13 03:05:28;;;;;;;3.38;1.92;;;;;;;2.31;83.86;101403.53;5008723;28;20061;-89
2023/01/13 03:08:05;;;;;;;2.85;1.65;;;;;;;2.36;83.11;101399.75;5001658;28;20248;-87
2023/01/13 03:10:46;;;;;;;2.75;1.67;;;;;;;2.44;83.61;101419.59;4994096;28;20032;-85
2023/01/13 03:13:21;;;;;;;3.88;1.70;;;;;;;2.44;83.25;101405.50;5000991;28;20522;-86
2023/01/13 03:16:08;;;;;;;2.28;1.55;;;;;;;2.58;83.20;101426.75;4985906;28;20042;-86
2023/01/13 03:18:41;;;;;;;2.92;1.60;;;;;;;2.31;83.74;101395.56;5003082;28;20045;-87
2023/01/13 03:21:53;;;;;;;2.00;1.25;;;;;;;2.50;83.39;101439.63;4987778;28;20109;-86
2023/01/13 03:24:42;;;;;;;2.65;1.58;;;;;;;2.54;82.98;101419.91;4995895;28;20042;-88
2023/01/13 03:27:51;;;;;;;2.60;1.48;;;;;;;2.27;83.30;101404.69;4980234;28;20103;-87
2023/01/13 03:30:39;;;;;;;2.40;1.38;;;;;;;2.43;83.24;101438.28;4978186;28;20133;-87
2023/01/13 03:33:18;;;;;;;2.63;1.50;;;;;;;2.21;84.01;101407.69;4998218;28;20046;-86
2023/01/13 03:35:57;;;;;;;3.37;1.57;;;;;;;2.45;84.08;101439.03;4975173;28;20057;-86
2023/01/13 03:38:55;;;;;;;2.28;1.33;;;;;;;2.38;83.90;101429.72;4998546;28;20185;-86
2023/01/13 03:41:30;;;;;;;2.33;1.20;;;;;;;2.44;84.09;101435.53;4995899;28;20069;-87
2023/01/13 03:44:21;;;;;;;2.63;1.30;;;;;;;2.58;83.67;101437.38;4986590;28;20042;-87
2023/01/13 03:46:59;;;;;;;2.03;1.08;;;;;;;2.13;84.49;101399.31;4995913;28;20185;-87
2023/01/13 03:49:55;;;;;;;2.35;1.25;;;;;;;2.41;84.58;101430.41;5000301;28;20034;-87
2023/01/13 03:52:29;;;;;;;5.72;3.00;;;;;;;2.32;84.66;101426.50;4984725;28;20141;-87
2023/01/13 03:55:17;;;;;;;8.70;3.65;;;;;;;2.47;84.84;101439.81;4984990;28;20065;-86
2023/01/13 03:58:13;;;;;;;4.70;2.13;;;;;;;2.42;85.68;101436.56;4980347;28;20053;-87
2023/01/13 04:00:47;;;;;;;2.40;1.40;;;;;;;2.46;84.74;101438.97;4997412;28;20038;-86
2023/01/13 04:03:22;;;;;;;2.55;1.40;;;;;;;2.46;84.82;101422.19;4977178;28;20046;-87
2023/01/13 04:05:53;;;;;;;2.78;1.48;;;;;;;2.37;84.70;101420.06;4973694;28;20061;-85
2023/01/13 04:08:22;;;;;;;2.33;1.40;;;;;;;2.21;85.51;101417.44;4983275;28;20050;-88
2023/01/13 04:11:05;;;;;;;2.78;1.67;;;;;;;2.47;85.62;101448.63;4988447;28;20050;-88
2023/01/13 04:13:36;;;;;;;2.92;1.67;;;;;;;2.41;85.34;101418.91;5010373;28;20102;-87
2023/01/13 04:16:06;;;;;;;2.47;1.67;;;;;;;2.54;85.57;101438.50;4980155;28;20041;-86
2023/01/13 04:18:31;;;;;;;3.60;2.00;;;;;;;2.31;85.69;101418.59;4986803;28;20041;-88
2023/01/13 04:21:01;;;;;;;3.15;1.73;;;;;;;2.40;85.64;101417.22;4995635;28;20042;-88
2023/01/13 04:23:29;;;;;;;3.13;2.00;;;;;;;2.39;85.88;101427.00;5001495;28;20068;-85
2023/01/13 04:25:58;;;;;;;3.08;1.70;;;;;;;2.35;85.04;101408.69;5006775;28;20049;-88
2023/01/13 04:28:30;;;;;;;3.25;1.90;;;;;;;2.31;84.98;101424.75;4987214;28;20041;-86
2023/01/13 04:31:01;;;;;;;3.60;2.00;;;;;;;2.50;84.94;101439.63;5002644;28;20046;-88
2023/01/13 04:33:29;;;;;;;3.40;2.15;;;;;;;2.46;85.56;101444.28;4987772;28;20046;-89
2023/01/13 04:36:01;;;;;;;3.30;2.05;;;;;;;2.29;86.49;101432.00;4989323;28;20064;-89
2023/01/13 04:38:44;;;;;;;2.85;1.75;;;;;;;2.52;86.17;101451.00;4984293;28;20050;-88
2023/01/13 04:41:09;;;;;;;3.90;1.90;;;;;;;2.41;85.92;101427.75;4978865;28;20042;-87
2023/01/13 04:43:36;;;;;;;3.83;2.20;;;;;;;2.63;86.18;101471.63;4998425;28;20108;-88
2023/01/13 04:46:04;;;;;;;3.58;2.22;;;;;;;2.48;85.98;101444.16;4997645;28;20054;-85
2023/01/13 04:48:30;;;;;;;3.92;2.20;;;;;;;2.35;86.55;101448.50;4994830;28;20031;-86
2023/01/13 04:50:57;;;;;;;3.50;2.03;;;;;;;2.38;86.09;101448.31;4993039;28;20108;-86
2023/01/13 04:53:22;;;;;;;3.20;2.03;;;;;;;2.29;86.89;101447.03;4983728;28;20064;-85
2023/01/13 04:55:48;;;;;;;3.63;2.25;;;;;;;2.52;85.93;101480.22;4991564;28;20045;-85
2023/01/13 04:58:15;;;;;;;3.28;1.95;;;;;;;2.42;85.90;101453.34;4965888;28;20052;-88
2023/01/13 05:00:41;;;;;;;3.40;2.00;;;;;;;2.11;85.70;101419.78;4988615;28;20145;-87
2023/01/13 05:03:07;;;;;;;3.17;1.90;;;;;;;2.39;86.08;101457.97;4991876;28;20053;-85
2023/01/13 05:05:34;;;;;;;4.00;2.15;;;;;;;2.43;85.48;101470.13;4980908;28;20194;-88
2023/01/13 05:08:00;;;;;;;3.90;2.00;;;;;;;2.17;85.92;101439.78;5015279;28;20038;-88
2023/01/13 05:10:48;;;;;;;4.18;2.30;;;;;;;2.25;86.72;101483.50;5012714;28;20038;-88
2023/01/13 05:18:54;;;;;;;5.35;2.80;;;;;;;2.36;86.85;101490.00;5006421;28;20127;-87
2023/01/13 05:27:24;;;;;;;4.82;2.80;;;;;;;2.35;87.59;101486.50;4980076;28;20060;-85
2023/01/13 05:29:54;;;;;;;4.80;2.63;;;;;;;2.18;87.95;101452.97;4997612;28;20049;-88
2023/01/13 05:32:29;;;;;;;6.13;3.42;;;;;;;2.01;88.20;101445.94;4995554;28;20054;-87
2023/01/13 05:35:00;;;;;;;5.25;3.15;;;;;;;1.95;88.48;101445.47;5008728;28;20064;-91
2023/01/13 05:37:31;;;;;;;4.82;2.58;;;;;;;2.18;88.37;101466.22;5032882;28;20065;-89
2023/01/13 05:43:19;;;;;;;4.60;2.72;;;;;;;2.40;88.05;101481.78;5003144;28;20041;-87
2023/01/13 05:46:30;;;;;;;5.82;2.78;;;;;;;2.30;87.24;101444.28;5097392;23;20061;-90
2023/01/13 05:49:15;;;;;;;5.20;2.95;;;;;;;2.43;87.10;101459.50;5032546;28;20062;-92
2023/01/13 05:51:40;;;;;;;3.65;2.20;;;;;;;2.37;87.05;101470.50;5011412;28;20124;-85
2023/01/13 05:54:09;;;;;;;3.70;2.45;;;;;;;2.51;87.00;101494.44;5014861;28;20068;-87
2023/01/13 05:56:37;;;;;;;5.47;2.85;;;;;;;2.51;86.89;101483.81;4999798;28;20117;-83
2023/01/13 05:59:04;;;;;;;4.30;2.80;;;;;;;2.57;87.71;101498.53;5018936;28;20038;-86
2023/01/13 06:01:30;;;;;;;;;;;;;;;2.51;87.87;101495.28;5022874;28;20045;-86
2023/01/13 06:03:57;;;;;;;3.95;2.47;;;;;;;2.25;87.69;101464.94;5017202;28;19917;-84
2023/01/13 06:06:23;;;;;;;4.50;2.60;;;;;;;2.48;87.23;101514.06;4969079;28;20057;-85
2023/01/13 06:08:50;;;;;;;4.78;2.88;;;;;;;2.40;87.84;101503.00;4981337;28;20096;-85
2023/01/13 06:11:22;;;;;;;4.50;2.78;;;;;;;2.55;87.62;101511.88;4980100;28;20088;-85
2023/01/13 06:13:52;;;;;;;4.60;2.88;;;;;;;2.54;88.22;101526.09;4980951;28;20109;-84
2023/01/13 06:16:20;;;;;;;4.68;2.97;;;;;;;2.42;87.95;101479.88;5001138;28;20042;-84
2023/01/13 06:18:48;;;;;;;6.07;3.00;;;;;;;2.81;87.13;101528.97;5007086;28;20088;-82
2023/01/13 06:21:15;;;;;;;6.63;4.10;;;;;;;2.65;87.64;101528.16;4989330;28;20101;-83
2023/01/13 06:23:45;;;;;;;7.40;3.63;;;;;;;2.59;88.05;101518.72;4988752;28;20049;-85
2023/01/13 06:26:17;;;;;;;6.25;3.30;;;;;;;2.69;87.66;101529.66;5006581;28;20108;-89
2023/01/13 06:28:43;;;;;;;5.75;3.33;;;;;;;2.59;87.20;101529.34;4984364;28;20064;-86
2023/01/13 06:31:08;;;;;;;5.53;3.03;;;;;;;2.71;86.63;101535.75;5014352;28;20038;-86
2023/01/13 06:33:48;;;;;;;7.78;3.53;;;;;;;2.80;86.96;101539.69;4974413;28;20081;-87
2023/01/13 06:36:16;;;;;;;6.50;3.80;;;;;;;2.76;86.85;101536.34;5009639;28;20086;-85
2023/01/13 06:38:46;;;;;;;5.63;3.45;;;;;;;2.47;86.61;101490.25;5011344;28;20042;-86
2023/01/13 06:41:13;;;;;;;6.75;3.65;;;;;;;2.63;86.69;101522.91;4996179;28;20046;-87
2023/01/13 06:43:39;;;;;;;6.55;3.45;;;;;;;2.81;86.39;101536.06;5004920;28;20380;-88
2023/01/13 06:46:07;;;;;;;5.75;3.60;;;;;;;2.56;86.72;101497.69;5018733;28;20121;-87
2023/01/13 06:48:34;;;;;;;7.15;3.70;;;;;;;2.72;86.56;101537.47;4982660;28;20564;-85
2023/01/13 06:51:01;;;;;;;6.05;3.75;;;;;;;2.74;86.61;101535.59;4996144;28;20071;-86
2023/01/13 06:53:27;;;;;;;5.55;3.58;;;;;;;2.89;86.51;101540.00;5028291;28;20044;-86
2023/01/13 06:55:54;;;;;;;6.93;3.70;;;;;;;2.86;85.93;101540.19;4979350;28;20179;-87
2023/01/13 06:58:19;;;;;;;7.68;3.85;;;;;;;2.74;86.71;101532.94;5016843;28;20045;-85
2023/01/13 07:00:50;;;;;;;6.88;3.72;;;;;;;2.93;86.58;101546.00;4983802;28;20486;-86
2023/01/13 07:03:21;;;;;;;6.57;3.50;;;;;;;2.91;85.65;101545.22;4999506;28;20041;-86
2023/01/13 07:05:53;;;;;;;7.38;4.25;;;;;;;2.83;85.85;101531.53;4977434;28;20104;-85
2023/01/13 07:08:21;;;;;;;7.25;3.88;;;;;;;2.86;85.67;101532.22;5000630;28;20040;-85
2023/01/13 07:10:47;;;;;;;9.82;3.92;;;;;;;2.98;85.80;101551.03;4987369;28;20034;-86
2023/01/13 07:16:02;;;;;;;7.15;3.80;;;;;;;2.91;85.47;101513.34;4987428;28;20063;-88
2023/01/13 07:18:33;;;;;;;5.05;3.17;;;;;;;3.22;84.15;101540.75;4990169;28;20046;-88
2023/01/13 07:21:09;;;;;;;7.85;4.03;;;;;;;3.18;84.80;101558.66;4989459;28;20098;-86
2023/01/13 07:23:36;;;;;;;7.10;4.47;;;;;;;3.22;85.20;101549.56;4980331;28;20170;-85
2023/01/13 07:26:07;;;;;;;6.30;3.50;;;;;;;3.27;85.11;101550.13;4999703;28;20053;-89
2023/01/13 07:28:37;;;;;;;5.68;3.38;;;;;;;3.20;84.68;101519.56;5021658;28;20071;-88
2023/01/13 07:31:20;;;;;;;6.43;3.90;;;;;;;3.30;84.10;101552.63;5021521;28;20041;-87
2023/01/13 07:33:49;;;;;;;8.73;5.28;;;;;;;3.42;84.68;101556.34;5020978;28;20393;-86
2023/01/13 07:36:17;;;;;;;7.50;4.93;;;;;;;3.33;84.86;101554.25;4998219;28;20051;-86
2023/01/13 07:38:47;;;;;;;10.85;5.82;;;;;;;3.36;84.44;101551.41;5010043;28;20029;-86
2023/01/13 07:44:09;;;;;;;16.00;8.93;;;;;;;3.45;84.80;101557.97;5010077;28;20516;-91
2023/01/13 07:46:38;;;;;;;14.48;8.52;;;;;;;3.13;84.94;101505.78;5001075;28;20045;-86
2023/01/13 07:49:06;;;;;;;14.00;8.63;;;;;;;3.39;85.79;101567.16;4988587;28;20045;-90
2023/01/13 07:51:54;;;;;;;14.90;8.73;;;;;;;3.26;86.20;101555.56;5007789;28;20056;-88
2023/01/13 07:54:22;;;;;;;13.27;7.53;;;;;;;2.96;85.85;101521.91;5025476;28;20052;-87
2023/01/13 07:56:51;;;;;;;;;;;;;;;3.28;85.87;101569.63;5003493;28;20053;-88
2023/01/13 07:59:18;;;;;;;10.15;5.93;;;;;;;2.95;85.70;101538.78;5025891;28;19956;-88
2023/01/13 08:01:44;;;;;;;12.52;6.78;;;;;;;2.98;85.93;101532.44;4974811;28;20069;-85
2023/01/13 08:04:09;;;;;;;15.57;9.47;;;;;;;2.98;86.53;101525.31;4993603;28;20045;-84
2023/01/13 08:06:38;;;;;;;12.13;7.35;;;;;;;3.08;85.69;101546.88;4994375;28;20415;-87
2023/01/13 08:09:11;;;;;;;10.02;6.20;;;;;;;3.20;85.78;101546.16;4990578;28;20129;-87
2023/01/13 08:11:38;;;;;;;10.02;6.40;;;;;;;3.47;85.49;101588.84;5022931;28;20041;-88
2023/01/13 08:14:03;;;;;;;9.60;5.75;;;;;;;3.49;84.68;101588.72;4978726;28;20046;-85
2023/01/13 08:16:34;;;;;;;7.07;3.97;;;;;;;3.44;84.03;101581.06;5000369;28;20451;-84
2023/01/13 08:19:02;;;;;;;6.63;3.75;;;;;;;3.36;83.86;101562.03;5001621;28;20034;-88
2023/01/13 08:21:28;;;;;;;6.82;4.10;;;;;;;3.40;83.58;101573.34;4984291;28;20061;-84
2023/01/13 08:23:54;;;;;;;6.60;4.20;;;;;;;3.24;84.46;101584.03;4987253;28;20033;-87
2023/01/13 08:26:22;;;;;;;7.15;3.85;;;;;;;3.21;84.77;101563.81;5006671;28;20054;-87
2023/01/13 08:28:53;;;;;;;7.72;3.72;;;;;;;3.37;84.35;101596.50;5009424;28;20109;-87
2023/01/13 08:31:19;;;;;;;7.25;4.15;;;;;;;3.22;84.95;101562.84;4974867;28;20052;-88
2023/01/13 08:33:45;;;;;;;6.95;4.00;;;;;;;3.08;84.80;101568.97;4997005;28;20041;-85
2023/01/13 08:36:15;;;;;;;;;;;;;;;3.19;84.44;101580.81;5000827;28;20038;-85
2023/01/13 08:38:42;;;;;;;8.30;4.28;;;;;;;3.20;84.33;101587.81;4995949;28;19996;-86
2023/01/13 08:41:13;;;;;;;6.75;4.10;;;;;;;3.03;84.23;101555.13;4985432;28;20045;-86
2023/01/13 08:43:38;;;;;;;6.70;3.70;;;;;;;3.16;83.92;101566.75;4998794;28;20072;-86
2023/01/13 08:46:04;;;;;;;5.83;3.53;;;;;;;3.28;84.05;101585.56;5029348;28;20049;-85
2023/01/13 08:48:32;;;;;;;;;;;;;;;3.42;83.89;101582.06;5003182;28;20626;-86
2023/01/13 08:51:02;;;;;;;7.43;4.30;;;;;;;3.27;83.94;101581.19;5021746;28;19902;-88
2023/01/13 08:53:30;;;;;;;7.25;4.53;;;;;;;3.37;83.96;101574.38;5012523;28;20192;-86
2023/01/13 08:55:59;;;;;;;7.07;4.10;;;;;;;3.52;83.16;101584.09;4995156;28;20053;-86
2023/01/13 08:58:26;;;;;;;7.85;4.60;;;;;;;3.41;82.68;101570.56;5007148;28;20101;-85
2023/01/13 09:00:53;;;;;;;8.65;4.80;;;;;;;3.50;82.61;101583.31;5020840;28;20092;-86
2023/01/13 09:03:22;;;;;;;8.25;4.50;;;;;;;3.47;82.51;101575.53;4987441;28;20042;-84
2023/01/13 09:05:48;;;;;;;7.47;4.93;;;;;;;3.51;83.11;101555.81;4986173;28;20096;-86
2023/01/13 09:08:14;;;;;;;7.95;4.65;;;;;;;3.52;82.80;101584.09;4978950;28;20038;-86
2023/01/13 09:10:43;;;;;;;6.82;3.85;;;;;;;3.43;81.70;101566.03;4996022;28;20042;-83
2023/01/13 09:13:13;;;;;;;9.52;5.70;;;;;;;3.61;82.79;101581.84;4981095;28;20045;-84
2023/01/13 09:15:43;;;;;;;8.38;4.85;;;;;;;3.44;82.81;101572.19;4999828;28;20038;-84
2023/01/13 09:18:08;;;;;;;7.45;4.40;;;;;;;3.39;82.37;101553.88;4995227;28;20081;-84
2023/01/13 09:20:34;;;;;;;8.13;5.18;;;;;;;3.43;81.77;101575.81;4979432;28;20126;-82
2023/01/13 09:23:00;;;;;;;8.57;4.43;;;;;;;3.31;83.24;101572.09;4995995;28;20100;-82
2023/01/13 09:25:26;;;;;;;8.35;4.90;;;;;;;3.46;82.81;101555.19;4965139;28;20057;-85
2023/01/13 09:27:55;;;;;;;12.52;6.72;;;;;;;3.56;83.29;101567.00;4978945;28;20090;-87
2023/01/13 09:30:21;;;;;;;7.93;5.10;;;;;;;3.61;82.53;101561.41;4994797;28;20045;-84
2023/01/13 09:32:47;;;;;;;8.00;4.82;;;;;;;3.54;82.97;101560.06;5010917;28;20026;-83
2023/01/13 09:35:12;;;;;;;8.48;5.30;;;;;;;3.48;82.13;101532.03;5007219;28;20540;-84
2023/01/13 09:37:39;;;;;;;9.25;5.97;;;;;;;3.54;82.86;101546.78;5009700;28;20057;-83
2023/01/13 09:40:26;;;;;;;9.43;5.60;;;;;;;3.57;82.76;101550.09;4978597;28;20437;-85
2023/01/13 09:46:04;;;;;;;9.07;5.18;;;;;;;3.76;81.65;101546.28;4998894;28;20125;-84
2023/01/13 09:48:50;;;;;;;7.80;4.90;;;;;;;3.69;81.84;101559.13;4981841;28;20112;-84
2023/01/13 09:51:30;;;;;;;7.78;4.80;;;;;;;3.64;81.77;101544.41;4985134;28;20046;-85
2023/01/13 09:54:30;;;;;;;8.18;5.47;;;;;;;3.62;81.88;101543.63;4994082;28;20038;-87
2023/01/13 09:57:16;;;;;;;11.18;5.93;;;;;;;3.71;82.24;101540.41;4992837;28;20036;-88
2023/01/13 09:59:43;;;;;;;10.93;5.85;;;;;;;3.68;82.04;101541.47;5007066;28;20038;-85
2023/01/13 10:02:39;;;;;;;7.07;4.72;;;;;;;3.72;81.67;101540.31;5008547;28;20046;-88
2023/01/13 10:05:32;;;;;;;7.22;4.55;;;;;;;3.78;81.12;101526.63;5027713;28;20033;-86
2023/01/13 10:08:20;;;;;;;8.20;4.90;;;;;;;3.86;82.21;101526.13;5027442;28;20041;-85
2023/01/13 10:14:22;;;;;;;7.30;4.65;;;;;;;4.01;81.68;101514.53;4985216;28;20077;-88
2023/01/13 10:19:28;;;;;;;7.63;4.70;;;;;;;3.90;81.76;101489.56;5033030;28;20044;-90
2023/01/13 10:22:18;;;;;;;8.70;4.80;;;;;;;3.99;81.75;101519.09;4971339;28;20053;-84
2023/01/13 10:25:05;;;;;;;9.40;5.20;;;;;;;4.09;81.38;101513.19;5031190;28;20030;-87
2023/01/13 10:27:37;;;;;;;11.68;6.80;;;;;;;4.10;81.27;101498.94;4999436;28;20030;-85
2023/01/13 10:30:33;;;;;;;7.97;5.22;;;;;;;4.15;80.79;101486.19;5017990;28;20038;-88
2023/01/13 10:33:12;;;;;;;10.15;5.80;;;;;;;4.23;81.24;101505.19;4998249;28;20046;-85
2023/01/13 10:35:54;;;;;;;9.75;6.53;;;;;;;4.28;80.65;101503.06;5015976;28;20057;-83
2023/01/13 10:38:36;;;;;;;10.93;5.47;;;;;;;4.35;80.60;101501.69;4992671;28;20489;-84
2023/01/13 10:41:10;;;;;;;14.10;8.38;;;;;;;4.18;81.11;101502.81;4996462;28;20034;-86
2023/01/13 10:43:36;;;;;;;13.10;6.93;;;;;;;4.34;81.06;101494.69;5003316;28;20034;-87
2023/01/13 10:46:08;;;;;;;10.20;6.70;;;;;;;4.42;81.29;101503.03;5014677;28;20037;-83
2023/01/13 10:48:49;;;;;;;10.43;5.60;;;;;;;4.52;80.88;101500.63;4978825;28;20272;-84
2023/01/13 10:51:38;;;;;;;8.13;5.20;;;;;;;4.52;79.74;101497.06;4981221;28;20045;-87
2023/01/13 10:54:12;;;;;;;11.90;6.10;;;;;;;4.52;80.02;101505.06;5005648;28;20045;-86
2023/01/13 10:56:42;;;;;;;10.27;6.22;;;;;;;4.45;79.18;101491.34;4995706;28;20038;-84
2023/01/13 10:59:21;;;;;;;11.13;6.28;;;;;;;4.65;79.35;101503.31;4978590;28;20065;-85
2023/01/13 11:01:59;;;;;;;11.13;6.00;;;;;;;4.75;79.03;101501.75;5014803;28;20201;-86
2023/01/13 11:04:32;;;;;;;11.60;6.65;;;;;;;4.81;79.25;101501.34;4993502;28;20057;-88
2023/01/13 11:06:58;;;;;;;10.52;6.82;;;;;;;4.67;78.44;101464.13;4999900;28;20033;-86
2023/01/13 11:09:24;;;;;;;14.68;8.00;;;;;;;4.75;78.05;101482.22;5017522;28;20033;-85
2023/01/13 11:11:54;;;;;;;12.70;6.57;;;;;;;4.60;78.51;101473.47;4986100;28;20033;-84
2023/01/13 11:14:31;;;;;;;11.80;6.53;;;;;;;4.76;78.40;101495.47;4971961;28;20045;-87
2023/01/13 11:17:00;;;;;;;11.80;7.28;;;;;;;4.64;78.38;101464.31;5017025;28;20049;-87
2023/01/13 11:19:27;;;;;;;12.60;7.20;;;;;;;4.59;78.48;101464.63;4983398;28;20038;-88
2023/01/13 11:22:07;;;;;;;11.18;6.70;;;;;;;4.63;78.52;101470.59;5019538;28;20490;-87
2023/01/13 11:24:53;;;;;;;12.95;7.50;;;;;;;4.79;78.90;101500.56;4995469;28;20037;-85
2023/01/13 11:27:20;;;;;;;9.77;6.32;;;;;;;4.71;78.68;101500.25;5012042;28;20112;-86
2023/01/13 11:30:08;;;;;;;10.45;5.93;;;;;;;4.67;78.38;101504.06;5003470;28;20465;-88
2023/01/13 11:33:14;;;;;;;11.82;6.32;;;;;;;4.80;78.82;101504.97;5016891;28;20058;-88
2023/01/13 11:35:45;;;;;;;10.77;6.05;;;;;;;4.71;78.21;101470.94;4974340;28;20118;-87
2023/01/13 11:38:39;;;;;;;10.60;5.95;;;;;;;4.90;77.81;101501.69;5021309;28;20101;-86
2023/01/13 11:41:28;;;;;;;11.45;6.85;;;;;;;4.74;77.99;101481.38;5009310;28;20105;-88
2023/01/13 11:44:03;;;;;;;17.67;9.30;;;;;;;4.63;78.16;101470.59;5016934;28;20030;-88
2023/01/13 11:46:28;;;;;;;10.35;6.10;;;;;;;4.71;78.51;101500.25;4978400;28;20096;-89
2023/01/13 11:48:55;;;;;;;10.18;6.03;;;;;;;4.67;78.25;101479.25;4988399;28;20034;-84
2023/01/13 11:51:38;;;;;;;9.52;6.45;;;;;;;4.85;78.23;101492.19;4994315;28;20508;-85
2023/01/13 11:54:21;;;;;;;16.23;8.93;;;;;;;4.79;78.57;101505.91;4979731;28;20038;-84
2023/01/13 11:57:15;;;;;;;10.40;6.28;;;;;;;4.75;78.15;101496.44;5007088;28;20092;-82
2023/01/13 12:00:02;;;;;;;12.27;7.13;;;;;;;4.67;79.42;101504.06;5015550;28;20517;-83
2023/01/13 12:02:51;;;;;;;14.48;6.80;;;;;;;4.54;79.51;101505.81;5013545;28;20040;-84
2023/01/13 12:05:22;;;;;;;17.60;7.63;;;;;;;4.59;80.01;101501.94;5017109;28;20043;-86
2023/01/13 12:08:15;;;;;;;12.45;6.95;;;;;;;4.67;79.76;101498.75;5012102;28;20041;-87
2023/01/13 12:11:00;;;;;;;14.57;7.25;;;;;;;4.75;79.49;101512.41;5006091;28;20470;-84
2023/01/13 12:13:54;;;;;;;16.30;8.05;;;;;;;4.82;79.59;101508.38;5007117;28;20033;-85
2023/01/13 12:16:29;;;;;;;15.02;8.00;;;;;;;4.65;80.00;101498.00;5017883;28;20030;-89
2023/01/13 12:19:10;;;;;;;13.38;8.85;;;;;;;4.77;79.49;101502.47;4972435;28;20046;-87
2023/01/13 12:21:39;;;;;;;17.42;10.02;;;;;;;4.70;79.82;101498.53;5022214;28;20029;-86
2023/01/13 12:24:30;;;;;;;14.73;8.63;;;;;;;4.78;79.57;101495.38;4992424;28;20101;-86
2023/01/13 12:27:19;;;;;;;15.45;9.50;;;;;;;4.84;79.70;101495.78;5006572;28;20110;-86
2023/01/13 12:29:45;;;;;;;15.23;8.65;;;;;;;4.86;79.38;101501.88;5012182;28;20022;-86
2023/01/13 12:32:16;;;;;;;16.40;8.27;;;;;;;4.92;79.22;101497.09;4985623;28;20038;-88
2023/01/13 12:34:46;;;;;;;13.40;8.35;;;;;;;4.88;79.32;101501.78;4977311;28;20548;-85
2023/01/13 12:37:49;;;;;;;15.88;8.13;;;;;;;5.00;79.18;101494.75;5005115;28;20258;-86
2023/01/13 12:40:24;;;;;;;18.02;9.65;;;;;;;5.10;78.70;101506.50;5004169;28;20548;-84
2023/01/13 12:45:43;;;;;;;19.60;9.38;;;;;;;5.26;77.99;101507.13;5024699;28;20032;-90
2023/01/13 12:48:47;;;;;;;19.35;9.27;;;;;;;5.37;77.87;101509.09;4977989;28;20082;-90
2023/01/13 12:51:26;;;;;;;13.10;8.18;;;;;;;5.24;78.15;101514.41;5024265;28;20129;-87